Terminal Aerodrome Forecast
Issued by NWS

Home | Current Version | Previous Version | Graphics & Text | Print | Product List | Glossary On
Versions: 1 2 3 4 5 6 7 8 9 10 11 12 13 14 15 16 17 18 19 20 21
584
FTUS43 KBIS 132339
TAFDIK
TAF
KDIK 132339Z 1400/1424 24005KT P6SM FEW100 SCT150
     FM140200 VRB05KT P6SM FEW100 SCT200
     FM140800 01006KT P6SM SCT070 BKN200
     FM141100 35008KT P6SM FEW040 SCT060
     FM141500 34016G24KT P6SM FEW030 SCT130=

USA.gov is the U.S. government's official web portal to all federal, state and local government web resources and services.